Time;durP1;ratioP1;P1;durP2;ratioP2;P2;SDS_P1;SDS_P2;PMS_P1;PMS_P2;Temp;Humidity;BMP_temperature;BMP_pressure;BME280_temperature;BME280_humidity;BME280_pressure;Samples;Min_cycle;Max_cycle;Signal;HPM_P1;HPM_P2
2022/04/18 00:01:43;;;;;;;;;;;21.40;37.00;;;;;;487986;243;1054;-39
2022/04/18 00:03:45;;;;;;;;;;;21.40;37.00;;;;;;487943;243;1085;-40
2022/04/18 00:05:46;;;;;;;;;;;21.40;37.00;;;;;;485049;243;1313;-39
2022/04/18 00:07:47;;;;;;;;;;;21.40;37.00;;;;;;486387;245;1055;-39
2022/04/18 00:09:49;;;;;;;;;;;21.40;37.00;;;;;;488245;244;1023;-40
2022/04/18 00:11:50;;;;;;;;;;;21.40;37.00;;;;;;488358;243;1083;-39
2022/04/18 00:13:51;;;;;;;;;;;21.40;37.00;;;;;;487932;243;2186;-40
2022/04/18 00:15:52;;;;;;;;;;;21.40;37.00;;;;;;487934;243;1096;-40
2022/04/18 00:17:54;;;;;;;;;;;21.40;36.90;;;;;;488094;243;1067;-40
2022/04/18 00:19:55;;;;;;;;;;;21.40;37.00;;;;;;488366;243;1024;-40
2022/04/18 00:21:57;;;;;;;;;;;21.40;37.00;;;;;;487973;243;1188;-40
2022/04/18 00:23:58;;;;;;;;;;;21.40;37.00;;;;;;487875;244;2479;-39
2022/04/18 00:25:59;;;;;;;;;;;21.40;37.00;;;;;;488352;243;1014;-40
2022/04/18 00:28:00;;;;;;;;;;;21.40;37.00;;;;;;488320;243;1072;-39
2022/04/18 00:30:02;;;;;;;;;;;21.40;37.00;;;;;;488376;243;978;-40
2022/04/18 00:32:03;;;;;;;;;;;21.50;37.00;;;;;;488007;243;1046;-40
2022/04/18 00:34:04;;;;;;;;;;;21.50;37.00;;;;;;488356;243;2201;-39
2022/04/18 00:36:06;;;;;;;;;;;21.40;36.90;;;;;;488172;243;1175;-40
2022/04/18 00:38:07;;;;;;;;;;;21.40;37.10;;;;;;488372;243;999;-40
2022/04/18 00:40:11;;;;;;;;;;;21.40;37.00;;;;;;488250;243;1029;-40
2022/04/18 00:42:10;;;;;;;;;;;21.40;37.00;;;;;;487778;244;2348;-39
2022/04/18 00:44:11;;;;;;;;;;;21.40;37.10;;;;;;487939;243;1023;-40
2022/04/18 00:46:12;;;;;;;;;;;21.40;37.00;;;;;;487885;243;1334;-40
2022/04/18 00:48:14;;;;;;;;;;;21.40;37.00;;;;;;488382;243;1092;-40
2022/04/18 00:50:15;;;;;;;;;;;21.40;37.10;;;;;;489567;243;1206;-40
2022/04/18 00:52:16;;;;;;;;;;;21.40;37.00;;;;;;490790;242;1190;-40
2022/04/18 00:54:18;;;;;;;;;;;21.40;37.00;;;;;;490749;242;2184;-39
2022/04/18 00:56:19;;;;;;;;;;;21.40;37.00;;;;;;490731;242;999;-40
2022/04/18 00:58:20;;;;;;;;;;;21.40;37.00;;;;;;490727;242;1002;-39
2022/04/18 01:00:22;;;;;;;;;;;21.40;37.00;;;;;;491187;242;1071;-40
2022/04/18 01:02:23;;;;;;;;;;;21.40;37.10;;;;;;491175;242;1340;-40
2022/04/18 01:04:24;;;;;;;;;;;21.40;37.10;;;;;;491206;242;1015;-39
2022/04/18 01:06:26;;;;;;;;;;;21.40;37.00;;;;;;490693;242;1179;-40
2022/04/18 01:08:27;;;;;;;;;;;21.40;37.00;;;;;;490720;242;1274;-39
2022/04/18 01:10:28;;;;;;;;;;;21.40;37.00;;;;;;490770;242;1064;-40
2022/04/18 01:12:30;;;;;;;;;;;21.40;37.10;;;;;;491170;242;981;-40
2022/04/18 01:14:31;;;;;;;;;;;21.40;37.00;;;;;;490764;242;2121;-40
2022/04/18 01:16:32;;;;;;;;;;;21.40;37.10;;;;;;491160;242;1068;-40
2022/04/18 01:18:34;;;;;;;;;;;21.40;37.00;;;;;;491204;242;988;-40
2022/04/18 01:20:35;;;;;;;;;;;21.30;37.00;;;;;;491211;242;1030;-40
2022/04/18 01:22:36;;;;;;;;;;;21.40;37.00;;;;;;490822;242;1196;-40
2022/04/18 01:29:16;;;;;;;;;;;21.40;37.10;;;;;;491107;243;1080;-40
2022/04/18 01:31:17;;;;;;;;;;;21.30;37.00;;;;;;491128;242;1204;-39
2022/04/18 01:33:18;;;;;;;;;;;21.30;37.10;;;;;;491139;242;1053;-40
2022/04/18 01:35:20;;;;;;;;;;;21.40;37.10;;;;;;491174;242;2113;-40
2022/04/18 01:37:21;;;;;;;;;;;21.30;37.00;;;;;;490865;242;1187;-39
2022/04/18 01:39:22;;;;;;;;;;;21.40;37.10;;;;;;491169;242;1058;-40
2022/04/18 01:41:24;;;;;;;;;;;21.30;37.00;;;;;;491163;242;1313;-40
2022/04/18 01:43:25;;;;;;;;;;;21.40;37.10;;;;;;491202;242;1028;-40
2022/04/18 01:45:26;;;;;;;;;;;21.40;37.00;;;;;;490864;242;1252;-40
2022/04/18 01:47:27;;;;;;;;;;;21.40;36.90;;;;;;490715;242;1303;-40
2022/04/18 01:49:29;;;;;;;;;;;21.40;37.00;;;;;;490760;242;1027;-40
2022/04/18 01:51:30;;;;;;;;;;;21.40;37.00;;;;;;491056;242;1187;-39
2022/04/18 01:53:31;;;;;;;;;;;21.30;37.00;;;;;;490745;242;1118;-39
2022/04/18 01:55:33;;;;;;;;;;;21.40;37.00;;;;;;491207;242;2106;-40
2022/04/18 01:57:34;;;;;;;;;;;21.40;37.00;;;;;;490696;242;2573;-40
2022/04/18 01:59:35;;;;;;;;;;;21.40;37.00;;;;;;491212;242;1232;-39
2022/04/18 02:01:37;;;;;;;;;;;21.30;37.00;;;;;;491004;242;1394;-40
2022/04/18 02:03:38;;;;;;;;;;;21.40;37.00;;;;;;491176;242;973;-40
2022/04/18 02:05:40;;;;;;;;;;;21.40;36.90;;;;;;490732;242;1093;-40
2022/04/18 02:07:41;;;;;;;;;;;21.30;37.00;;;;;;490713;242;1195;-39
2022/04/18 02:09:42;;;;;;;;;;;21.40;37.00;;;;;;491048;242;1160;-40
2022/04/18 02:11:43;;;;;;;;;;;21.40;37.10;;;;;;491144;242;1034;-40
2022/04/18 02:13:45;;;;;;;;;;;21.40;37.00;;;;;;491192;242;1053;-40
2022/04/18 02:15:46;;;;;;;;;;;21.40;36.90;;;;;;491059;242;2121;-40
2022/04/18 02:17:47;;;;;;;;;;;21.40;36.90;;;;;;490877;242;1092;-40
2022/04/18 02:19:49;;;;;;;;;;;21.40;37.00;;;;;;491209;242;1050;-40
2022/04/18 02:21:50;;;;;;;;;;;21.40;36.90;;;;;;491120;242;1231;-40
2022/04/18 02:23:51;;;;;;;;;;;21.40;36.90;;;;;;491097;242;1156;-40
2022/04/18 02:25:52;;;;;;;;;;;21.40;37.00;;;;;;491125;242;1010;-39
2022/04/18 02:27:54;;;;;;;;;;;21.40;36.90;;;;;;491185;242;1159;-40
2022/04/18 02:29:55;;;;;;;;;;;21.40;37.00;;;;;;491216;242;1083;-40
2022/04/18 02:34:16;;;;;;;;;;;21.40;37.00;;;;;;491164;242;954;-40
2022/04/18 02:36:17;;;;;;;;;;;21.40;37.00;;;;;;491162;242;2184;-40
2022/04/18 02:38:18;;;;;;;;;;;21.30;37.00;;;;;;490863;242;1178;-40
2022/04/18 02:40:19;;;;;;;;;;;21.30;37.00;;;;;;490743;242;1041;-39
2022/04/18 02:42:21;;;;;;;;;;;21.40;37.00;;;;;;490946;242;1058;-40
2022/04/18 02:44:22;;;;;;;;;;;21.30;37.00;;;;;;491202;242;1065;-40
2022/04/18 02:46:23;;;;;;;;;;;21.40;37.00;;;;;;491104;242;1343;-40
2022/04/18 02:48:25;;;;;;;;;;;21.40;37.00;;;;;;490771;242;1110;-40
2022/04/18 02:50:26;;;;;;;;;;;21.40;37.00;;;;;;491179;242;1102;-40
2022/04/18 02:52:27;;;;;;;;;;;21.30;36.90;;;;;;491055;242;1135;-39
2022/04/18 02:54:29;;;;;;;;;;;21.30;37.00;;;;;;491160;242;1080;-40
2022/04/18 02:56:30;;;;;;;;;;;21.40;37.00;;;;;;491066;242;2118;-40
2022/04/18 02:58:31;;;;;;;;;;;21.30;37.00;;;;;;491194;242;1128;-40
2022/04/18 03:00:33;;;;;;;;;;;21.40;37.10;;;;;;491189;242;1074;-40
2022/04/18 03:02:34;;;;;;;;;;;21.40;37.00;;;;;;491190;242;1067;-40
2022/04/18 03:04:35;;;;;;;;;;;21.40;36.90;;;;;;491167;242;1060;-40
2022/04/18 03:06:37;;;;;;;;;;;21.40;37.00;;;;;;491124;242;1045;-40
2022/04/18 03:08:38;;;;;;;;;;;21.30;37.00;;;;;;483221;242;1277;-40
2022/04/18 03:12:59;;;;;;;;;;;21.40;37.00;;;;;;491182;243;1060;-40
2022/04/18 03:15:00;;;;;;;;;;;21.40;36.90;;;;;;490747;242;2200;-40
2022/04/18 03:17:01;;;;;;;;;;;21.40;37.00;;;;;;491146;242;1009;-40
2022/04/18 03:19:03;;;;;;;;;;;21.40;37.00;;;;;;490733;242;1100;-40
2022/04/18 03:21:04;;;;;;;;;;;21.40;37.00;;;;;;491170;242;954;-39
2022/04/18 03:23:05;;;;;;;;;;;21.40;36.90;;;;;;491016;242;1166;-40
2022/04/18 03:25:07;;;;;;;;;;;21.40;37.00;;;;;;490930;242;1394;-40
2022/04/18 03:27:08;;;;;;;;;;;21.30;36.90;;;;;;491167;242;1561;-40
2022/04/18 03:29:09;;;;;;;;;;;21.40;37.00;;;;;;490776;242;1075;-39
2022/04/18 03:31:11;;;;;;;;;;;21.40;36.90;;;;;;491177;242;997;-40
2022/04/18 03:33:12;;;;;;;;;;;21.30;36.90;;;;;;491182;242;1045;-40
2022/04/18 03:35:13;;;;;;;;;;;21.40;36.80;;;;;;490770;242;2177;-40
2022/04/18 03:39:54;;;;;;;;;;;21.40;36.90;;;;;;490793;242;1122;-39
2022/04/18 03:41:53;;;;;;;;;;;21.40;36.90;;;;;;491114;242;2412;-40
2022/04/18 03:43:55;;;;;;;;;;;21.40;36.90;;;;;;490764;242;1073;-39
2022/04/18 03:45:57;;;;;;;;;;;21.40;36.90;;;;;;491197;242;1352;-40
2022/04/18 03:47:57;;;;;;;;;;;21.40;36.90;;;;;;490648;242;1423;-40
2022/04/18 03:49:59;;;;;;;;;;;21.40;36.90;;;;;;491211;242;1190;-40
2022/04/18 03:52:00;;;;;;;;;;;21.40;36.80;;;;;;491164;242;1023;-40
2022/04/18 03:54:01;;;;;;;;;;;21.40;36.90;;;;;;490949;242;1255;-40
2022/04/18 03:56:03;;;;;;;;;;;21.40;36.90;;;;;;490742;242;2196;-40
2022/04/18 03:58:04;;;;;;;;;;;21.40;36.90;;;;;;490751;242;1046;-39
2022/04/18 04:00:06;;;;;;;;;;;21.40;36.90;;;;;;491224;242;1212;-39
2022/04/18 04:02:08;;;;;;;;;;;21.30;36.90;;;;;;491179;242;1044;-40
2022/04/18 04:04:08;;;;;;;;;;;21.40;36.90;;;;;;490643;242;2079;-40
2022/04/18 04:06:10;;;;;;;;;;;21.40;36.90;;;;;;491177;242;1103;-40
2022/04/18 04:08:11;;;;;;;;;;;21.40;37.00;;;;;;491113;242;1226;-40
2022/04/18 04:10:12;;;;;;;;;;;21.40;36.90;;;;;;491151;242;1219;-40
2022/04/18 04:12:14;;;;;;;;;;;21.40;36.80;;;;;;490709;242;1035;-40
2022/04/18 04:14:15;;;;;;;;;;;21.40;36.90;;;;;;490741;242;1111;-40
2022/04/18 04:16:18;;;;;;;;;;;21.40;36.90;;;;;;490910;242;2185;-40
2022/04/18 04:18:18;;;;;;;;;;;21.40;36.90;;;;;;491078;242;1580;-40
2022/04/18 04:20:19;;;;;;;;;;;21.40;36.90;;;;;;491170;242;1077;-40
2022/04/18 04:22:20;;;;;;;;;;;21.40;36.90;;;;;;491043;242;2104;-40
2022/04/18 04:24:22;;;;;;;;;;;21.40;37.00;;;;;;483097;242;1295;-39
2022/04/18 04:26:23;;;;;;;;;;;21.40;37.00;;;;;;489015;242;1033;-40
2022/04/18 04:28:25;;;;;;;;;;;21.40;37.00;;;;;;490448;242;1119;-39
2022/04/18 04:30:26;;;;;;;;;;;21.40;37.10;;;;;;490726;242;1061;-40
2022/04/18 04:32:27;;;;;;;;;;;21.30;36.90;;;;;;491186;242;1221;-39
2022/04/18 04:34:29;;;;;;;;;;;21.40;37.00;;;;;;491184;242;1063;-40
2022/04/18 04:36:30;;;;;;;;;;;21.40;37.00;;;;;;491183;242;2125;-40
2022/04/18 04:38:31;;;;;;;;;;;21.40;36.90;;;;;;491157;242;1117;-39
2022/04/18 04:40:32;;;;;;;;;;;21.40;36.90;;;;;;490722;242;1076;-40
2022/04/18 04:42:34;;;;;;;;;;;21.40;36.90;;;;;;490799;242;1103;-40
2022/04/18 04:44:35;;;;;;;;;;;21.30;36.80;;;;;;491194;242;1077;-40
2022/04/18 04:46:37;;;;;;;;;;;21.30;36.90;;;;;;491182;242;1163;-40
2022/04/18 04:48:38;;;;;;;;;;;21.40;37.00;;;;;;491184;242;1064;-40
2022/04/18 04:50:41;;;;;;;;;;;21.30;36.90;;;;;;491186;242;1048;-40
2022/04/18 04:52:41;;;;;;;;;;;21.30;36.90;;;;;;490398;243;2434;-40
2022/04/18 04:54:43;;;;;;;;;;;21.30;37.00;;;;;;487907;243;1167;-40
2022/04/18 04:56:44;;;;;;;;;;;21.30;36.90;;;;;;488287;243;2107;-39
2022/04/18 04:58:45;;;;;;;;;;;21.40;36.90;;;;;;488394;243;1057;-39
2022/04/18 05:00:46;;;;;;;;;;;21.40;36.90;;;;;;488360;243;1255;-39
2022/04/18 05:02:48;;;;;;;;;;;21.30;36.80;;;;;;488340;243;1082;-40
2022/04/18 05:04:49;;;;;;;;;;;21.40;36.80;;;;;;487902;243;1078;-40
2022/04/18 05:06:50;;;;;;;;;;;21.40;36.80;;;;;;488343;243;1065;-39
2022/04/18 05:08:52;;;;;;;;;;;21.40;36.90;;;;;;488323;243;1156;-39
2022/04/18 05:10:55;;;;;;;;;;;21.40;36.80;;;;;;488353;243;1065;-40
2022/04/18 05:12:55;;;;;;;;;;;21.40;36.80;;;;;;488353;243;2065;-40
2022/04/18 05:14:57;;;;;;;;;;;21.40;36.90;;;;;;487915;243;1040;-39
2022/04/18 05:16:58;;;;;;;;;;;21.40;36.90;;;;;;488020;243;2118;-40
2022/04/18 05:18:59;;;;;;;;;;;21.40;36.90;;;;;;488122;243;1039;-39
2022/04/18 05:21:01;;;;;;;;;;;21.40;36.80;;;;;;488324;243;1179;-39
2022/04/18 05:23:02;;;;;;;;;;;21.40;36.80;;;;;;487987;243;1022;-40
2022/04/18 05:25:04;;;;;;;;;;;21.40;36.80;;;;;;488099;243;1250;-40
2022/04/18 05:27:05;;;;;;;;;;;21.40;36.90;;;;;;488307;243;993;-39
2022/04/18 05:29:06;;;;;;;;;;;21.40;36.90;;;;;;488362;243;1064;-39
2022/04/18 05:31:07;;;;;;;;;;;21.30;36.80;;;;;;488319;243;1224;-40
2022/04/18 05:33:09;;;;;;;;;;;21.30;36.80;;;;;;488138;243;1069;-40
2022/04/18 05:35:10;;;;;;;;;;;21.40;36.90;;;;;;487919;243;1116;-40
2022/04/18 05:37:11;;;;;;;;;;;21.40;36.80;;;;;;488056;243;2123;-40
2022/04/18 05:39:13;;;;;;;;;;;21.30;36.90;;;;;;488331;243;1257;-40
2022/04/18 05:41:14;;;;;;;;;;;21.40;36.90;;;;;;487852;243;1084;-39
2022/04/18 05:43:15;;;;;;;;;;;21.40;36.80;;;;;;488309;243;1070;-40
2022/04/18 05:45:17;;;;;;;;;;;21.40;36.80;;;;;;488176;243;1088;-40
2022/04/18 05:47:18;;;;;;;;;;;21.40;36.80;;;;;;488080;243;1150;-39
2022/04/18 05:49:19;;;;;;;;;;;21.40;36.80;;;;;;488316;243;1014;-40
2022/04/18 05:51:21;;;;;;;;;;;21.40;36.80;;;;;;488092;243;1012;-40
2022/04/18 05:53:22;;;;;;;;;;;21.40;36.80;;;;;;488322;243;1200;-40
2022/04/18 05:55:23;;;;;;;;;;;21.40;36.70;;;;;;487885;243;1230;-39
2022/04/18 05:57:25;;;;;;;;;;;21.40;36.80;;;;;;488273;243;2181;-40
2022/04/18 05:59:26;;;;;;;;;;;21.40;36.80;;;;;;488344;243;1056;-40
2022/04/18 06:01:28;;;;;;;;;;;21.40;36.80;;;;;;487812;243;1214;-40
2022/04/18 06:03:29;;;;;;;;;;;21.40;36.80;;;;;;488270;243;2329;-40
2022/04/18 06:05:30;;;;;;;;;;;21.30;36.80;;;;;;487884;243;1076;-40
2022/04/18 06:07:32;;;;;;;;;;;21.40;36.90;;;;;;488304;243;1022;-39
2022/04/18 06:09:33;;;;;;;;;;;21.40;36.80;;;;;;487852;244;2693;-40
2022/04/18 06:11:34;;;;;;;;;;;21.40;36.80;;;;;;487885;243;1181;-39
2022/04/18 06:13:35;;;;;;;;;;;21.40;36.80;;;;;;488385;243;1040;-40
2022/04/18 06:15:36;;;;;;;;;;;21.40;36.80;;;;;;488382;243;1251;-39
2022/04/18 06:17:38;;;;;;;;;;;21.40;36.80;;;;;;488301;243;2103;-39
2022/04/18 06:19:39;;;;;;;;;;;21.40;36.70;;;;;;488007;243;1043;-39
2022/04/18 06:21:40;;;;;;;;;;;21.40;36.70;;;;;;488283;243;1063;-40
2022/04/18 06:23:42;;;;;;;;;;;21.40;36.60;;;;;;488390;243;1389;-40
2022/04/18 06:25:43;;;;;;;;;;;21.40;36.70;;;;;;488088;243;1175;-39
2022/04/18 06:27:44;;;;;;;;;;;21.40;36.80;;;;;;488347;243;1042;-39
2022/04/18 06:29:46;;;;;;;;;;;21.40;36.70;;;;;;488049;243;990;-39
2022/04/18 06:31:49;;;;;;;;;;;21.40;36.70;;;;;;488304;243;1197;-40
2022/04/18 06:33:48;;;;;;;;;;;21.40;36.60;;;;;;488259;243;1420;-40
2022/04/18 06:35:50;;;;;;;;;;;21.40;36.60;;;;;;487895;243;2182;-39
2022/04/18 06:37:51;;;;;;;;;;;21.30;36.50;;;;;;488097;243;1059;-39
2022/04/18 06:39:52;;;;;;;;;;;21.40;36.60;;;;;;487338;243;1352;-39
2022/04/18 06:41:55;;;;;;;;;;;21.40;36.50;;;;;;484532;244;1052;-40
2022/04/18 06:43:55;;;;;;;;;;;21.40;36.50;;;;;;487857;244;2123;-39
2022/04/18 06:45:56;;;;;;;;;;;21.40;36.60;;;;;;487854;243;1338;-39
2022/04/18 06:47:58;;;;;;;;;;;21.40;36.50;;;;;;487911;243;1229;-40
2022/04/18 06:49:59;;;;;;;;;;;21.40;36.50;;;;;;488364;243;1101;-39
2022/04/18 06:52:00;;;;;;;;;;;21.30;36.50;;;;;;487918;243;1932;-39
2022/04/18 06:54:02;;;;;;;;;;;21.40;36.50;;;;;;488324;243;1116;-40
2022/04/18 06:58:22;;;;;;;;;;;21.40;36.50;;;;;;487930;244;1045;-40
2022/04/18 07:00:23;;;;;;;;;;;21.40;36.50;;;;;;488354;243;1086;-40
2022/04/18 07:02:24;;;;;;;;;;;21.40;36.50;;;;;;488292;243;1036;-40
2022/04/18 07:04:26;;;;;;;;;;;21.40;36.40;;;;;;488338;243;1280;-40
2022/04/18 07:06:27;;;;;;;;;;;21.30;36.30;;;;;;488311;243;1188;-40
2022/04/18 07:08:28;;;;;;;;;;;21.40;36.40;;;;;;487893;243;1215;-40
2022/04/18 07:10:30;;;;;;;;;;;21.40;36.30;;;;;;488213;243;1185;-40
2022/04/18 07:12:31;;;;;;;;;;;21.40;36.30;;;;;;487842;243;1049;-40
2022/04/18 07:14:32;;;;;;;;;;;21.40;36.30;;;;;;488057;243;1048;-40
2022/04/18 07:16:34;;;;;;;;;;;21.40;36.20;;;;;;488284;243;2122;-40
2022/04/18 07:18:35;;;;;;;;;;;21.40;36.30;;;;;;487877;243;1111;-39
2022/04/18 07:20:36;;;;;;;;;;;21.40;36.20;;;;;;488131;243;1042;-40
2022/04/18 07:22:38;;;;;;;;;;;21.40;36.20;;;;;;488004;243;1134;-40
2022/04/18 07:24:39;;;;;;;;;;;21.40;36.20;;;;;;488365;243;984;-39
2022/04/18 07:26:40;;;;;;;;;;;21.40;36.10;;;;;;487964;243;1188;-39
2022/04/18 07:28:42;;;;;;;;;;;21.40;36.10;;;;;;488394;243;1014;-39
2022/04/18 07:30:43;;;;;;;;;;;21.40;36.10;;;;;;488359;243;1073;-39
2022/04/18 07:32:44;;;;;;;;;;;21.40;36.10;;;;;;488304;243;1147;-40
2022/04/18 07:34:47;;;;;;;;;;;21.40;36.10;;;;;;488335;243;995;-40
2022/04/18 07:36:48;;;;;;;;;;;21.40;36.10;;;;;;488233;243;2183;-40
2022/04/18 07:38:52;;;;;;;;;;;21.40;36.10;;;;;;488394;243;1100;-40
2022/04/18 07:40:53;;;;;;;;;;;21.40;36.00;;;;;;488209;243;1181;-40
2022/04/18 07:42:54;;;;;;;;;;;21.40;36.10;;;;;;488311;243;1119;-40
2022/04/18 07:44:56;;;;;;;;;;;21.40;36.10;;;;;;488349;243;1049;-40
2022/04/18 07:46:58;;;;;;;;;;;21.40;36.00;;;;;;488113;243;1042;-40
2022/04/18 07:48:59;;;;;;;;;;;21.40;36.00;;;;;;488341;243;1050;-40
2022/04/18 07:53:19;;;;;;;;;;;21.40;35.90;;;;;;488350;243;1064;-40
2022/04/18 07:55:21;;;;;;;;;;;21.40;35.90;;;;;;488215;243;1161;-40
2022/04/18 07:57:22;;;;;;;;;;;21.40;35.90;;;;;;487902;243;2131;-40
2022/04/18 07:59:23;;;;;;;;;;;21.40;35.80;;;;;;488315;243;1087;-39
2022/04/18 08:01:24;;;;;;;;;;;21.40;35.80;;;;;;488336;243;1046;-40
2022/04/18 08:03:26;;;;;;;;;;;21.40;35.90;;;;;;487863;243;1048;-39
2022/04/18 08:05:27;;;;;;;;;;;21.40;35.90;;;;;;487887;243;1094;-40
2022/04/18 08:07:30;;;;;;;;;;;21.40;35.90;;;;;;487878;243;1056;-40
2022/04/18 08:09:30;;;;;;;;;;;21.40;35.80;;;;;;488287;243;2230;-40
2022/04/18 08:11:32;;;;;;;;;;;21.40;35.70;;;;;;488138;243;1308;-40
2022/04/18 08:13:33;;;;;;;;;;;21.40;35.80;;;;;;488360;243;1058;-39
2022/04/18 08:15:34;;;;;;;;;;;21.40;35.80;;;;;;488162;243;1037;-40
2022/04/18 08:17:35;;;;;;;;;;;21.40;35.80;;;;;;488321;243;2130;-40
2022/04/18 08:19:39;;;;;;;;;;;21.30;35.80;;;;;;487888;243;1049;-40
2022/04/18 08:21:38;;;;;;;;;;;21.30;35.70;;;;;;488245;243;1988;-39
2022/04/18 08:23:39;;;;;;;;;;;21.40;35.70;;;;;;487682;244;1122;-40
2022/04/18 08:25:41;;;;;;;;;;;21.40;35.70;;;;;;487856;243;1027;-40
2022/04/18 08:27:42;;;;;;;;;;;21.40;35.70;;;;;;487848;243;1211;-39
2022/04/18 08:29:45;;;;;;;;;;;21.30;35.60;;;;;;488358;243;1072;-39
2022/04/18 08:31:45;;;;;;;;;;;21.40;35.70;;;;;;488151;243;2121;-40
2022/04/18 08:33:46;;;;;;;;;;;21.40;35.70;;;;;;488326;243;1223;-40
2022/04/18 08:35:47;;;;;;;;;;;21.40;35.70;;;;;;488350;243;980;-40
2022/04/18 08:37:49;;;;;;;;;;;21.30;35.60;;;;;;488336;243;2126;-39
2022/04/18 08:39:50;;;;;;;;;;;21.40;35.60;;;;;;488335;243;1071;-39
2022/04/18 08:41:51;;;;;;;;;;;21.40;35.60;;;;;;487877;243;1231;-40
2022/04/18 08:43:53;;;;;;;;;;;21.40;35.60;;;;;;488343;243;1060;-40
2022/04/18 08:45:54;;;;;;;;;;;21.40;35.50;;;;;;487844;243;1232;-40
2022/04/18 08:52:46;;;;;;;;;;;21.40;35.40;;;;;;487897;244;1104;-39
2022/04/18 08:54:48;;;;;;;;;;;21.40;35.40;;;;;;488004;243;1237;-40
2022/04/18 08:56:50;;;;;;;;;;;21.40;35.40;;;;;;490991;242;2133;-40
2022/04/18 08:58:50;;;;;;;;;;;21.40;35.40;;;;;;491150;242;2341;-40
2022/04/18 09:00:52;;;;;;;;;;;21.30;35.40;;;;;;491185;242;1056;-40
2022/04/18 09:02:53;;;;;;;;;;;21.40;35.40;;;;;;491167;242;1117;-40
2022/04/18 09:04:55;;;;;;;;;;;21.40;35.40;;;;;;491171;242;1060;-40
2022/04/18 09:06:56;;;;;;;;;;;21.40;35.30;;;;;;491093;242;2124;-40
2022/04/18 09:08:57;;;;;;;;;;;21.40;35.40;;;;;;491191;242;1124;-39
2022/04/18 09:10:58;;;;;;;;;;;21.40;35.30;;;;;;491153;242;1267;-40
2022/04/18 09:13:00;;;;;;;;;;;21.40;35.30;;;;;;490830;242;1172;-40
2022/04/18 09:15:01;;;;;;;;;;;21.40;35.30;;;;;;490736;242;1047;-39
2022/04/18 09:17:02;;;;;;;;;;;21.40;35.20;;;;;;491110;242;2121;-40
2022/04/18 09:19:05;;;;;;;;;;;21.40;35.20;;;;;;490711;242;1053;-40
2022/04/18 09:21:05;;;;;;;;;;;21.40;35.20;;;;;;491016;242;2232;-40
2022/04/18 09:23:07;;;;;;;;;;;21.30;35.20;;;;;;490736;242;1304;-39
2022/04/18 09:25:08;;;;;;;;;;;21.40;35.30;;;;;;491225;242;1034;-40
2022/04/18 09:27:09;;;;;;;;;;;21.30;35.20;;;;;;490713;242;1191;-40
2022/04/18 09:29:11;;;;;;;;;;;21.40;35.30;;;;;;491177;242;984;-39
2022/04/18 09:31:12;;;;;;;;;;;21.40;35.20;;;;;;491145;242;1225;-40
2022/04/18 09:33:14;;;;;;;;;;;21.40;35.20;;;;;;491117;242;1238;-40
2022/04/18 09:35:15;;;;;;;;;;;21.40;35.20;;;;;;490975;242;1083;-40
2022/04/18 09:37:17;;;;;;;;;;;21.40;35.20;;;;;;491123;242;2110;-40
2022/04/18 09:39:18;;;;;;;;;;;21.40;35.20;;;;;;491209;242;974;-39
2022/04/18 09:41:19;;;;;;;;;;;21.40;35.10;;;;;;491149;242;1061;-40
2022/04/18 09:43:21;;;;;;;;;;;21.40;35.10;;;;;;490821;242;1185;-40
2022/04/18 09:45:22;;;;;;;;;;;21.40;35.10;;;;;;491199;242;1091;-40
2022/04/18 09:47:23;;;;;;;;;;;21.40;35.10;;;;;;490715;242;1090;-40
2022/04/18 09:49:24;;;;;;;;;;;21.40;35.10;;;;;;491157;242;1023;-40
2022/04/18 09:51:26;;;;;;;;;;;21.30;35.00;;;;;;490645;242;1042;-40
2022/04/18 09:53:27;;;;;;;;;;;21.40;35.10;;;;;;491189;242;1057;-40
2022/04/18 09:55:29;;;;;;;;;;;21.40;35.00;;;;;;490998;242;1192;-40
2022/04/18 09:57:30;;;;;;;;;;;21.30;35.00;;;;;;491009;242;2185;-40
2022/04/18 09:59:31;;;;;;;;;;;21.30;35.00;;;;;;491204;242;1057;-40
2022/04/18 10:01:33;;;;;;;;;;;21.30;35.00;;;;;;491149;242;1070;-39
2022/04/18 10:03:34;;;;;;;;;;;21.30;35.00;;;;;;490697;242;1175;-40
2022/04/18 10:05:35;;;;;;;;;;;21.30;34.90;;;;;;490800;242;1047;-40
2022/04/18 10:07:37;;;;;;;;;;;21.30;34.90;;;;;;490676;242;1022;-39
2022/04/18 10:09:38;;;;;;;;;;;21.30;34.90;;;;;;490716;243;1056;-39
2022/04/18 10:11:39;;;;;;;;;;;21.30;35.00;;;;;;490970;242;1039;-40
2022/04/18 10:13:41;;;;;;;;;;;21.30;34.90;;;;;;490783;242;1143;-40
2022/04/18 10:15:42;;;;;;;;;;;21.30;34.90;;;;;;490678;242;1261;-39
2022/04/18 10:17:43;;;;;;;;;;;21.30;34.90;;;;;;490708;242;2184;-40
2022/04/18 10:19:45;;;;;;;;;;;21.30;34.90;;;;;;491180;242;1099;-40
2022/04/18 10:21:46;;;;;;;;;;;21.40;34.90;;;;;;491154;242;1049;-39
2022/04/18 10:23:48;;;;;;;;;;;21.30;34.90;;;;;;491056;242;1190;-40
2022/04/18 10:25:49;;;;;;;;;;;21.30;34.80;;;;;;491072;242;1033;-40
2022/04/18 10:27:50;;;;;;;;;;;21.40;34.80;;;;;;487385;242;1318;-40
2022/04/18 10:29:52;;;;;;;;;;;21.40;34.70;;;;;;489140;243;1072;-40
2022/04/18 10:31:53;;;;;;;;;;;21.40;34.70;;;;;;491121;242;1159;-40
2022/04/18 10:33:54;;;;;;;;;;;21.40;34.70;;;;;;491198;242;1260;-40
2022/04/18 10:35:55;;;;;;;;;;;21.40;34.70;;;;;;490977;242;932;-40
2022/04/18 10:37:57;;;;;;;;;;;21.40;34.60;;;;;;491186;242;2110;-40
2022/04/18 10:39:58;;;;;;;;;;;21.40;34.60;;;;;;491046;242;1253;-40
2022/04/18 10:42:01;;;;;;;;;;;21.40;34.60;;;;;;491127;242;1078;-40
2022/04/18 10:44:01;;;;;;;;;;;21.40;34.70;;;;;;490687;242;1667;-40
2022/04/18 10:46:02;;;;;;;;;;;21.40;34.70;;;;;;490687;242;1058;-40
2022/04/18 10:48:03;;;;;;;;;;;21.40;34.60;;;;;;491173;242;1057;-40
2022/04/18 10:50:05;;;;;;;;;;;21.40;34.60;;;;;;491175;242;1062;-40
2022/04/18 10:52:09;;;;;;;;;;;21.30;34.60;;;;;;491116;242;1088;-40
2022/04/18 10:54:08;;;;;;;;;;;21.30;34.60;;;;;;490592;242;2106;-40
2022/04/18 10:56:10;;;;;;;;;;;21.30;34.60;;;;;;491118;242;1349;-39
2022/04/18 10:58:12;;;;;;;;;;;21.30;34.60;;;;;;490704;242;2204;-40
2022/04/18 11:00:13;;;;;;;;;;;21.30;34.60;;;;;;490746;242;1076;-39
2022/04/18 11:02:14;;;;;;;;;;;21.40;34.60;;;;;;491072;242;1329;-40
2022/04/18 11:04:16;;;;;;;;;;;21.40;34.50;;;;;;491182;242;993;-39
2022/04/18 11:06:17;;;;;;;;;;;21.40;34.60;;;;;;491156;242;1036;-40
2022/04/18 11:08:18;;;;;;;;;;;21.40;34.50;;;;;;490906;242;980;-40
2022/04/18 11:10:20;;;;;;;;;;;21.30;34.50;;;;;;490728;242;1125;-39
2022/04/18 11:12:21;;;;;;;;;;;21.30;34.40;;;;;;491186;242;1017;-40
2022/04/18 11:14:22;;;;;;;;;;;21.40;34.50;;;;;;490823;242;1180;-40
2022/04/18 11:16:23;;;;;;;;;;;21.40;34.40;;;;;;490936;242;1051;-40
2022/04/18 11:18:25;;;;;;;;;;;21.30;34.40;;;;;;491120;242;2180;-39
2022/04/18 11:20:27;;;;;;;;;;;21.40;34.40;;;;;;491145;242;1061;-40
2022/04/18 11:22:28;;;;;;;;;;;21.40;34.40;;;;;;491055;242;1080;-40
2022/04/18 11:24:29;;;;;;;;;;;21.30;34.40;;;;;;491146;242;1050;-40
2022/04/18 11:26:30;;;;;;;;;;;21.40;34.30;;;;;;491033;242;1044;-39
2022/04/18 11:28:32;;;;;;;;;;;21.30;34.30;;;;;;488124;242;1345;-39
2022/04/18 11:30:33;;;;;;;;;;;21.30;34.30;;;;;;488422;243;1297;-40
2022/04/18 11:32:34;;;;;;;;;;;21.30;34.40;;;;;;490705;242;1032;-40
2022/04/18 11:34:36;;;;;;;;;;;21.40;34.40;;;;;;491155;242;1242;-40
2022/04/18 11:36:37;;;;;;;;;;;21.30;34.30;;;;;;490903;242;1073;-40
2022/04/18 11:38:38;;;;;;;;;;;21.30;34.30;;;;;;490682;242;2188;-40
2022/04/18 11:40:40;;;;;;;;;;;21.30;34.30;;;;;;490705;242;1240;-40
2022/04/18 11:42:41;;;;;;;;;;;21.30;34.40;;;;;;490892;242;1004;-40
2022/04/18 11:44:42;;;;;;;;;;;21.30;34.30;;;;;;490818;242;1147;-39
2022/04/18 11:46:43;;;;;;;;;;;21.40;34.20;;;;;;491171;242;1205;-40
2022/04/18 11:48:45;;;;;;;;;;;21.40;34.20;;;;;;490737;242;1088;-40
2022/04/18 11:50:46;;;;;;;;;;;21.40;34.10;;;;;;491197;242;1086;-39
2022/04/18 11:52:48;;;;;;;;;;;21.40;34.10;;;;;;490729;242;1095;-40
2022/04/18 11:54:49;;;;;;;;;;;21.40;34.20;;;;;;491095;242;1045;-40
2022/04/18 11:56:50;;;;;;;;;;;21.40;34.10;;;;;;491122;242;1233;-40
2022/04/18 11:58:51;;;;;;;;;;;21.40;34.10;;;;;;490721;242;2200;-40
2022/04/18 12:07:51;;;;;;;;;;;21.40;34.00;;;;;;490848;243;1171;-39
2022/04/18 12:09:52;;;;;;;;;;;21.30;34.00;;;;;;491187;242;1097;-40
2022/04/18 12:11:54;;;;;;;;;;;21.30;34.00;;;;;;490694;242;1057;-40
2022/04/18 12:13:55;;;;;;;;;;;21.40;34.00;;;;;;490867;242;1266;-39
2022/04/18 12:15:56;;;;;;;;;;;21.40;34.00;;;;;;490264;242;975;-40
2022/04/18 12:17:58;;;;;;;;;;;21.40;34.00;;;;;;489753;242;2118;-40
2022/04/18 12:19:59;;;;;;;;;;;21.40;34.00;;;;;;490221;242;1018;-39
2022/04/18 12:22:00;;;;;;;;;;;21.40;34.00;;;;;;490171;242;1039;-39
2022/04/18 12:24:02;;;;;;;;;;;21.40;34.00;;;;;;490233;242;1056;-39
2022/04/18 12:26:03;;;;;;;;;;;21.40;34.00;;;;;;490422;242;1023;-39